Portage, Minnesota
Current Conditions -  °F | °C
As of 3:13 AM on Wednesday 22 Oct 2014 (Local Time) from KORB Reporting Station
Clear Clear  
Wind Chill: 31°   Ceiling: Unl
Heat Index: 37°   Visibility: 10mi
Dew Point: 34°   Wind: 9mph
Humidity: 87%   Direction: 150°SSE
Pressure: 30.1"   Gusts: NA
Location:  48.1455°N, 92.8504°W
Report Text: KORB 220813Z AUTO 15008KT 10SM CLR 03/01 A3010 RMK AO2
Loading
Personal Weather Stations






























Interactive Weather Map
Tropical Storm Tracking
New forecast layout! Learn more

10-Day Weather Forecast

Advertisements
Track Severe Weather on mobile